Time;durP1;ratioP1;P1;durP2;ratioP2;P2;SDS_P1;SDS_P2;PMS_P1;PMS_P2;Temp;Humidity;BMP_temperature;BMP_pressure;BME280_temperature;BME280_humidity;BME280_pressure;Samples;Min_cycle;Max_cycle;Signal;HPM_P1;HPM_P2
2023/08/01 00:01:27;;;;;;;;;;;20.70;96.20;;;;;;5097127;28;20072;-64
2023/08/01 00:03:53;;;;;;;;;;;20.70;96.40;;;;;;5097134;28;20071;-65
2023/08/01 00:06:19;;;;;;;;;;;20.70;96.30;;;;;;5097217;28;19981;-63
2023/08/01 00:08:45;;;;;;;;;;;20.70;96.40;;;;;;5097146;28;20005;-65
2023/08/01 00:11:11;;;;;;;;;;;20.70;96.50;;;;;;5097026;28;19987;-64
2023/08/01 00:13:37;;;;;;;;;;;20.60;96.80;;;;;;5097181;28;20346;-64
2023/08/01 00:16:02;;;;;;;;;;;20.60;96.90;;;;;;5096890;28;19985;-65
2023/08/01 00:18:28;;;;;;;;;;;20.70;97.10;;;;;;5096854;28;20390;-63
2023/08/01 00:20:53;;;;;;;;;;;20.60;97.70;;;;;;5096936;28;19988;-65
2023/08/01 00:23:19;;;;;;;;;;;20.50;97.90;;;;;;5096852;28;19981;-63
2023/08/01 00:25:45;;;;;;;;;;;20.50;98.10;;;;;;5096728;28;19985;-65
2023/08/01 00:28:12;;;;;;;;;;;20.40;98.20;;;;;;5096649;28;20062;-64
2023/08/01 00:30:38;;;;;;;;;;;20.40;98.40;;;;;;5096556;28;19985;-64
2023/08/01 00:33:03;;;;;;;;;;;20.40;98.80;;;;;;5096755;28;20035;-65
2023/08/01 00:35:29;;;;;;;;;;;20.40;99.10;;;;;;5096620;28;19982;-63
2023/08/01 00:37:54;;;;;;;;;;;20.30;99.40;;;;;;5096678;28;20443;-65
2023/08/01 00:40:20;;;;;;;;;;;20.20;99.30;;;;;;5096633;28;19988;-65
2023/08/01 00:42:46;;;;;;;;;;;20.20;99.20;;;;;;5096371;28;19985;-64
2023/08/01 00:45:11;;;;;;;;;;;20.20;99.00;;;;;;5096268;28;20021;-65
2023/08/01 00:47:37;;;;;;;;;;;20.20;99.40;;;;;;5095047;28;19985;-65
2023/08/01 00:50:03;;;;;;;;;;;20.10;99.50;;;;;;5096288;28;20027;-65
2023/08/01 00:52:29;;;;;;;;;;;20.00;99.90;;;;;;5096472;28;19981;-64
2023/08/01 00:54:54;;;;;;;;;;;20.00;99.90;;;;;;5096288;28;20035;-64
2023/08/01 00:57:20;;;;;;;;;;;20.00;99.90;;;;;;5096121;28;20017;-64
2023/08/01 00:59:45;;;;;;;;;;;20.00;99.90;;;;;;5096017;28;20428;-65
2023/08/01 01:02:11;;;;;;;;;;;20.00;99.90;;;;;;5096410;28;19989;-64
2023/08/01 01:04:37;;;;;;;;;;;19.90;99.90;;;;;;5096145;28;20025;-65
2023/08/01 01:07:05;;;;;;;;;;;19.90;99.90;;;;;;5096235;28;19992;-64
2023/08/01 01:09:31;;;;;;;;;;;19.90;99.90;;;;;;5095941;28;20005;-63
2023/08/01 01:11:58;;;;;;;;;;;19.90;99.50;;;;;;5096108;28;20004;-65
2023/08/01 01:14:24;;;;;;;;;;;19.90;99.70;;;;;;5095918;28;19992;-62
2023/08/01 01:16:51;;;;;;;;;;;19.90;99.60;;;;;;5095906;28;19986;-64
2023/08/01 01:19:17;;;;;;;;;;;19.80;99.70;;;;;;5095814;28;19990;-64
2023/08/01 01:21:42;;;;;;;;;;;19.80;99.40;;;;;;5095590;28;19985;-65
2023/08/01 01:24:09;;;;;;;;;;;19.80;99.20;;;;;;5095706;28;19981;-64
2023/08/01 01:26:36;;;;;;;;;;;19.80;99.70;;;;;;5095664;28;20004;-64
2023/08/01 01:29:03;;;;;;;;;;;19.80;99.60;;;;;;5095314;28;20009;-65
2023/08/01 01:31:28;;;;;;;;;;;19.80;99.90;;;;;;5095595;28;20502;-63
2023/08/01 01:33:54;;;;;;;;;;;19.80;99.90;;;;;;5095534;28;19981;-64
2023/08/01 01:36:20;;;;;;;;;;;19.70;99.70;;;;;;5095375;28;19981;-65
2023/08/01 01:38:46;;;;;;;;;;;19.70;99.90;;;;;;5095423;28;20439;-64
2023/08/01 01:41:11;;;;;;;;;;;19.60;99.90;;;;;;5095427;28;20075;-64
2023/08/01 01:43:37;;;;;;;;;;;19.60;99.90;;;;;;5095203;28;20422;-64
2023/08/01 01:46:03;;;;;;;;;;;19.50;99.90;;;;;;5095056;28;20021;-64
2023/08/01 01:48:29;;;;;;;;;;;19.50;99.90;;;;;;5095217;28;20004;-63
2023/08/01 01:50:54;;;;;;;;;;;19.50;99.90;;;;;;5095192;28;20035;-64
2023/08/01 01:53:20;;;;;;;;;;;19.40;99.90;;;;;;5095109;28;19988;-63
2023/08/01 01:55:45;;;;;;;;;;;19.40;99.90;;;;;;5095088;28;19988;-64
2023/08/01 01:58:11;;;;;;;;;;;19.40;99.90;;;;;;5094491;28;20000;-64
2023/08/01 02:00:36;;;;;;;;;;;19.40;99.90;;;;;;5094958;28;19981;-63
2023/08/01 02:03:02;;;;;;;;;;;19.30;99.90;;;;;;5094976;28;20041;-64
2023/08/01 02:05:30;;;;;;;;;;;19.30;99.90;;;;;;5095004;28;20431;-64
2023/08/01 02:07:56;;;;;;;;;;;19.30;99.90;;;;;;5094752;28;20009;-65
2023/08/01 02:10:21;;;;;;;;;;;19.20;99.90;;;;;;5094935;28;20035;-64
2023/08/01 02:12:47;;;;;;;;;;;19.20;99.90;;;;;;5094656;28;19981;-63
2023/08/01 02:15:13;;;;;;;;;;;19.20;99.90;;;;;;5094743;28;19981;-64
2023/08/01 02:17:39;;;;;;;;;;;19.20;99.90;;;;;;5094981;28;19989;-65
2023/08/01 02:20:04;;;;;;;;;;;19.20;99.90;;;;;;5094597;28;20515;-65
2023/08/01 02:22:30;;;;;;;;;;;19.20;99.90;;;;;;5094569;28;19988;-64
2023/08/01 02:24:55;;;;;;;;;;;19.10;99.90;;;;;;5094469;28;19981;-63
2023/08/01 02:27:21;;;;;;;;;;;19.10;99.90;;;;;;5094254;28;19989;-65
2023/08/01 02:29:47;;;;;;;;;;;19.10;99.90;;;;;;5094451;28;20119;-64
2023/08/01 02:32:12;;;;;;;;;;;19.10;99.90;;;;;;5094346;28;19981;-64
2023/08/01 02:34:38;;;;;;;;;;;19.10;99.90;;;;;;5094435;28;20450;-64
2023/08/01 02:37:03;;;;;;;;;;;19.00;99.90;;;;;;5094436;28;19981;-64
2023/08/01 02:39:29;;;;;;;;;;;19.00;99.90;;;;;;5094303;28;19981;-64
2023/08/01 02:41:54;;;;;;;;;;;19.00;99.90;;;;;;5094028;28;19985;-65
2023/08/01 02:44:20;;;;;;;;;;;19.00;99.90;;;;;;5094277;28;20024;-63
2023/08/01 02:46:45;;;;;;;;;;;18.90;99.90;;;;;;5094069;28;20060;-65
2023/08/01 02:49:11;;;;;;;;;;;18.90;99.90;;;;;;5094022;28;20057;-64
2023/08/01 02:51:37;;;;;;;;;;;18.90;99.90;;;;;;5094147;28;19985;-65
2023/08/01 02:54:02;;;;;;;;;;;18.90;99.90;;;;;;5094171;28;19981;-63
2023/08/01 02:56:28;;;;;;;;;;;18.90;99.90;;;;;;5093771;28;19981;-63
2023/08/01 02:58:55;;;;;;;;;;;18.90;99.90;;;;;;5093954;28;20046;-63
2023/08/01 03:01:20;;;;;;;;;;;18.80;99.90;;;;;;5094019;28;20004;-64
2023/08/01 03:03:46;;;;;;;;;;;18.90;99.90;;;;;;5093901;28;19981;-65
2023/08/01 03:06:12;;;;;;;;;;;18.80;99.90;;;;;;5093942;28;20385;-65
2023/08/01 03:08:38;;;;;;;;;;;18.80;99.90;;;;;;5093647;28;20527;-65
2023/08/01 03:11:04;;;;;;;;;;;18.80;99.90;;;;;;5093088;28;20068;-64
2023/08/01 03:13:30;;;;;;;;;;;18.80;99.90;;;;;;5093854;28;20023;-63
2023/08/01 03:15:55;;;;;;;;;;;18.70;99.90;;;;;;5093887;28;20027;-64
2023/08/01 03:18:21;;;;;;;;;;;18.80;99.90;;;;;;5093724;28;19989;-64
2023/08/01 03:20:46;;;;;;;;;;;18.70;99.90;;;;;;5093685;28;20034;-65
2023/08/01 03:23:12;;;;;;;;;;;18.70;99.90;;;;;;5093906;28;19986;-64
2023/08/01 03:25:37;;;;;;;;;;;18.60;99.90;;;;;;5093584;28;19982;-65
2023/08/01 03:28:03;;;;;;;;;;;18.60;99.90;;;;;;5093576;28;20382;-64
2023/08/01 03:30:31;;;;;;;;;;;18.60;99.90;;;;;;5093943;28;20051;-65
2023/08/01 03:32:56;;;;;;;;;;;18.60;99.90;;;;;;5093725;28;20017;-63
2023/08/01 03:35:23;;;;;;;;;;;18.50;99.90;;;;;;5093529;28;20032;-64
2023/08/01 03:37:49;;;;;;;;;;;18.50;99.90;;;;;;5093640;28;19982;-63
2023/08/01 03:40:15;;;;;;;;;;;18.40;99.90;;;;;;5093427;28;20004;-64
2023/08/01 03:42:40;;;;;;;;;;;18.40;99.90;;;;;;5093442;28;20347;-64
2023/08/01 03:45:06;;;;;;;;;;;18.40;99.90;;;;;;5093357;28;20021;-63
2023/08/01 03:47:32;;;;;;;;;;;18.40;99.90;;;;;;5093590;28;20076;-65
2023/08/01 03:49:57;;;;;;;;;;;18.40;99.90;;;;;;5093312;28;20104;-64
2023/08/01 03:52:23;;;;;;;;;;;18.40;99.90;;;;;;5093636;28;19985;-65
2023/08/01 03:54:49;;;;;;;;;;;18.40;99.90;;;;;;5093294;28;20031;-64
2023/08/01 03:57:14;;;;;;;;;;;18.50;99.90;;;;;;5093280;28;20503;-65
2023/08/01 03:59:40;;;;;;;;;;;18.50;99.90;;;;;;5093303;28;19982;-64
2023/08/01 04:02:06;;;;;;;;;;;18.50;99.90;;;;;;5093631;28;20028;-63
2023/08/01 04:04:31;;;;;;;;;;;18.50;99.90;;;;;;5093422;28;20402;-65
2023/08/01 04:06:57;;;;;;;;;;;18.50;99.90;;;;;;5093502;28;19985;-64
2023/08/01 04:09:23;;;;;;;;;;;18.50;99.90;;;;;;5093097;28;20009;-64
2023/08/01 04:11:48;;;;;;;;;;;18.60;99.90;;;;;;5093331;28;19981;-65
2023/08/01 04:14:14;;;;;;;;;;;18.50;99.90;;;;;;5093184;28;20079;-63
2023/08/01 04:16:39;;;;;;;;;;;18.60;99.90;;;;;;5093279;28;19981;-64
2023/08/01 04:19:05;;;;;;;;;;;18.60;99.90;;;;;;5093444;28;19985;-65
2023/08/01 04:21:31;;;;;;;;;;;18.60;99.90;;;;;;5095230;28;19985;-64
2023/08/01 04:23:56;;;;;;;;;;;18.60;99.90;;;;;;5096531;28;19985;-64
2023/08/01 04:26:22;;;;;;;;;;;18.50;99.90;;;;;;5096880;28;19985;-63
2023/08/01 04:28:47;;;;;;;;;;;18.60;99.90;;;;;;5096833;28;20004;-63
2023/08/01 04:31:13;;;;;;;;;;;18.60;99.90;;;;;;5096603;28;19981;-64
2023/08/01 04:33:39;;;;;;;;;;;18.60;99.90;;;;;;5096730;28;20351;-63
2023/08/01 04:36:04;;;;;;;;;;;18.60;99.90;;;;;;5096726;28;19981;-64
2023/08/01 04:38:30;;;;;;;;;;;18.70;99.90;;;;;;5096321;28;19985;-64
2023/08/01 04:40:55;;;;;;;;;;;18.70;99.90;;;;;;5096707;28;19982;-64
2023/08/01 04:43:21;;;;;;;;;;;18.70;99.90;;;;;;5096852;28;19988;-63
2023/08/01 04:45:46;;;;;;;;;;;18.80;99.90;;;;;;5096317;28;20016;-64
2023/08/01 04:48:12;;;;;;;;;;;18.80;99.90;;;;;;5096297;28;20012;-63
2023/08/01 04:50:37;;;;;;;;;;;18.80;99.90;;;;;;5096513;28;20114;-64
2023/08/01 04:53:03;;;;;;;;;;;18.90;99.90;;;;;;5096164;28;19985;-65
2023/08/01 04:55:29;;;;;;;;;;;18.90;99.90;;;;;;5094933;28;20425;-65
2023/08/01 04:57:55;;;;;;;;;;;19.00;99.90;;;;;;5096128;28;20115;-64
2023/08/01 05:00:20;;;;;;;;;;;19.00;99.90;;;;;;5096234;28;19988;-63
2023/08/01 05:02:46;;;;;;;;;;;19.10;99.90;;;;;;5096016;28;19984;-64
2023/08/01 05:05:11;;;;;;;;;;;19.10;99.90;;;;;;5096228;28;19985;-64
2023/08/01 05:07:37;;;;;;;;;;;19.20;99.90;;;;;;5095918;28;20507;-64
2023/08/01 05:10:02;;;;;;;;;;;19.20;99.90;;;;;;5095860;28;20009;-63
2023/08/01 05:12:28;;;;;;;;;;;19.20;99.90;;;;;;5096176;28;19989;-63
2023/08/01 05:14:54;;;;;;;;;;;19.30;99.90;;;;;;5096051;28;20007;-63
2023/08/01 05:17:20;;;;;;;;;;;19.20;99.90;;;;;;5095848;28;20027;-65
2023/08/01 05:19:45;;;;;;;;;;;19.20;99.90;;;;;;5095819;28;19985;-64
2023/08/01 05:22:11;;;;;;;;;;;19.30;99.90;;;;;;5095565;28;19988;-64
2023/08/01 05:24:36;;;;;;;;;;;19.30;99.90;;;;;;5095770;28;19981;-63
2023/08/01 05:27:02;;;;;;;;;;;19.30;99.90;;;;;;5095642;28;19981;-64
2023/08/01 05:29:28;;;;;;;;;;;19.20;99.90;;;;;;5095539;28;20005;-63
2023/08/01 05:31:53;;;;;;;;;;;19.30;99.90;;;;;;5095302;28;19981;-65
2023/08/01 05:34:19;;;;;;;;;;;19.30;99.90;;;;;;5095066;28;20325;-63
2023/08/01 05:36:44;;;;;;;;;;;19.30;99.90;;;;;;5095387;28;20008;-63
2023/08/01 05:39:10;;;;;;;;;;;19.30;99.90;;;;;;5095476;28;20360;-65
2023/08/01 05:41:36;;;;;;;;;;;19.30;99.90;;;;;;5095274;28;20339;-63
2023/08/01 05:44:02;;;;;;;;;;;19.30;99.90;;;;;;5095360;28;19985;-63
2023/08/01 05:46:27;;;;;;;;;;;19.40;99.90;;;;;;5095101;28;20023;-63
2023/08/01 05:48:53;;;;;;;;;;;19.40;99.90;;;;;;5095096;28;20005;-63
2023/08/01 05:51:19;;;;;;;;;;;19.40;99.90;;;;;;5094972;28;19985;-64
2023/08/01 05:53:44;;;;;;;;;;;19.50;99.90;;;;;;5095171;28;19984;-65
2023/08/01 05:56:10;;;;;;;;;;;19.50;99.90;;;;;;5095203;28;19981;-63
2023/08/01 05:58:35;;;;;;;;;;;19.60;99.90;;;;;;5094940;28;20406;-64
2023/08/01 06:01:01;;;;;;;;;;;19.80;99.90;;;;;;5095129;28;19981;-65
2023/08/01 06:03:27;;;;;;;;;;;19.90;99.90;;;;;;5094985;28;19981;-63
2023/08/01 06:05:52;;;;;;;;;;;19.90;99.90;;;;;;5094599;28;20357;-63
2023/08/01 06:08:18;;;;;;;;;;;20.00;99.90;;;;;;5094806;28;20005;-64
2023/08/01 06:10:44;;;;;;;;;;;20.10;99.90;;;;;;5094856;28;19988;-63
2023/08/01 06:13:09;;;;;;;;;;;20.30;99.90;;;;;;5094989;28;20131;-63
2023/08/01 06:15:35;;;;;;;;;;;20.50;99.90;;;;;;5094745;28;20388;-64
2023/08/01 06:18:01;;;;;;;;;;;20.60;99.90;;;;;;5094703;28;19985;-65
2023/08/01 06:20:27;;;;;;;;;;;20.80;99.90;;;;;;5094537;28;19981;-64
2023/08/01 06:22:53;;;;;;;;;;;20.90;99.90;;;;;;5094897;28;19981;-63
2023/08/01 06:25:18;;;;;;;;;;;21.10;99.90;;;;;;5094573;28;19981;-65
2023/08/01 06:27:44;;;;;;;;;;;21.20;99.90;;;;;;5094496;28;19989;-64
2023/08/01 06:30:10;;;;;;;;;;;21.40;99.90;;;;;;5094330;28;20004;-63
2023/08/01 06:32:35;;;;;;;;;;;21.50;99.30;;;;;;5094566;28;20071;-65
2023/08/01 06:35:01;;;;;;;;;;;21.60;96.90;;;;;;5094183;28;19984;-65
2023/08/01 06:37:26;;;;;;;;;;;21.80;96.60;;;;;;5094280;28;19982;-63
2023/08/01 06:39:52;;;;;;;;;;;22.00;98.10;;;;;;5094472;28;19986;-63
2023/08/01 06:42:17;;;;;;;;;;;22.10;98.10;;;;;;5094216;28;19981;-63
2023/08/01 06:44:43;;;;;;;;;;;22.20;97.00;;;;;;5092991;28;19982;-64
2023/08/01 06:47:09;;;;;;;;;;;22.30;95.90;;;;;;5094149;28;19981;-63
2023/08/01 06:49:34;;;;;;;;;;;22.40;94.70;;;;;;5094112;28;20442;-64
2023/08/01 06:52:00;;;;;;;;;;;22.50;96.40;;;;;;5094123;28;20004;-63
2023/08/01 06:54:25;;;;;;;;;;;22.70;92.80;;;;;;5093963;28;19982;-63
2023/08/01 06:56:51;;;;;;;;;;;22.90;98.00;;;;;;5094067;28;19988;-65
2023/08/01 06:59:17;;;;;;;;;;;23.10;93.90;;;;;;5094002;28;20375;-64
2023/08/01 07:01:43;;;;;;;;;;;23.20;96.00;;;;;;5093795;28;20446;-65
2023/08/01 07:04:10;;;;;;;;;;;23.40;94.50;;;;;;5094098;28;19981;-64
2023/08/01 07:06:35;;;;;;;;;;;23.60;92.20;;;;;;5093959;28;19989;-65
2023/08/01 07:09:01;;;;;;;;;;;23.70;90.70;;;;;;5093817;28;20005;-64
2023/08/01 07:11:26;;;;;;;;;;;23.90;91.40;;;;;;5093831;28;19987;-63
2023/08/01 07:13:52;;;;;;;;;;;24.40;91.40;;;;;;5093820;28;19981;-63
2023/08/01 07:16:17;;;;;;;;;;;26.60;83.70;;;;;;5093560;28;20028;-65
2023/08/01 07:18:43;;;;;;;;;;;29.90;62.70;;;;;;5093788;28;19981;-64
2023/08/01 07:21:08;;;;;;;;;;;32.60;58.00;;;;;;5093797;28;19996;-64
2023/08/01 07:23:35;;;;;;;;;;;34.60;53.60;;;;;;5093649;28;20004;-63
2023/08/01 07:26:01;;;;;;;;;;;35.90;45.30;;;;;;5093651;28;20025;-63
2023/08/01 07:28:26;;;;;;;;;;;36.80;42.90;;;;;;5093688;28;20067;-63
2023/08/01 07:30:59;;;;;;;;;;;37.90;42.50;;;;;;5093526;28;20518;-64
2023/08/01 07:33:25;;;;;;;;;;;38.60;38.60;;;;;;5093569;28;20450;-65
2023/08/01 07:35:50;;;;;;;;;;;39.00;39.20;;;;;;5093804;28;20035;-65
2023/08/01 07:38:17;;;;;;;;;;;39.70;37.30;;;;;;5093592;28;20355;-64
2023/08/01 07:40:42;;;;;;;;;;;39.70;38.60;;;;;;5093504;28;20020;-64
2023/08/01 07:43:08;;;;;;;;;;;40.10;37.60;;;;;;5093570;28;20039;-63
2023/08/01 07:45:36;;;;;;;;;;;40.50;35.90;;;;;;5093217;28;20021;-63
2023/08/01 07:48:02;;;;;;;;;;;41.00;35.60;;;;;;5093313;28;19989;-63
2023/08/01 07:50:28;;;;;;;;;;;40.90;35.80;;;;;;5093617;28;19982;-62
2023/08/01 07:52:53;;;;;;;;;;;41.50;36.40;;;;;;5092296;28;19985;-64
2023/08/01 07:55:20;;;;;;;;;;;41.50;34.20;;;;;;5093565;28;20023;-63
2023/08/01 07:57:46;;;;;;;;;;;41.50;34.70;;;;;;5097444;28;20367;-65
2023/08/01 08:00:12;;;;;;;;;;;41.80;35.10;;;;;;5097267;28;19985;-63
2023/08/01 08:02:37;;;;;;;;;;;42.00;34.00;;;;;;5097138;28;20029;-63
2023/08/01 08:05:03;;;;;;;;;;;41.90;34.40;;;;;;5097352;28;20078;-65
2023/08/01 08:07:28;;;;;;;;;;;41.90;33.00;;;;;;5097335;28;20038;-65
2023/08/01 08:09:55;;;;;;;;;;;42.10;35.60;;;;;;5097161;28;20005;-65
2023/08/01 08:12:21;;;;;;;;;;;42.30;32.90;;;;;;5097183;28;20051;-66
2023/08/01 08:14:47;;;;;;;;;;;42.40;33.40;;;;;;5096978;28;20439;-64
2023/08/01 08:17:12;;;;;;;;;;;42.80;34.90;;;;;;5097082;28;20346;-63
2023/08/01 08:19:38;;;;;;;;;;;43.20;33.20;;;;;;5096871;28;19992;-65
2023/08/01 08:22:03;;;;;;;;;;;42.60;33.00;;;;;;5097073;28;20069;-63
2023/08/01 08:24:29;;;;;;;;;;;42.30;31.40;;;;;;5096943;28;19985;-64
2023/08/01 08:26:55;;;;;;;;;;;42.10;31.50;;;;;;5097145;28;19992;-63
2023/08/01 08:29:20;;;;;;;;;;;42.10;32.80;;;;;;5096824;28;20500;-64
2023/08/01 08:31:46;;;;;;;;;;;42.50;32.50;;;;;;5097090;28;20071;-63
2023/08/01 08:34:12;;;;;;;;;;;42.80;31.80;;;;;;5096638;28;19992;-64
2023/08/01 08:36:37;;;;;;;;;;;42.90;33.50;;;;;;5096989;28;20454;-63
2023/08/01 08:39:03;;;;;;;;;;;43.10;32.50;;;;;;5096928;28;20362;-63
2023/08/01 08:41:30;;;;;;;;;;;43.50;32.10;;;;;;5096653;28;19981;-64
2023/08/01 08:43:56;;;;;;;;;;;43.60;31.00;;;;;;5096300;28;20011;-63
2023/08/01 08:46:23;;;;;;;;;;;43.60;30.40;;;;;;5096343;28;20071;-64
2023/08/01 08:48:49;;;;;;;;;;;43.40;31.60;;;;;;5096340;28;20116;-64
2023/08/01 08:51:15;;;;;;;;;;;43.00;31.90;;;;;;5096437;28;20016;-63
2023/08/01 08:53:41;;;;;;;;;;;42.90;31.30;;;;;;5096383;28;20031;-65
2023/08/01 08:56:07;;;;;;;;;;;42.70;32.60;;;;;;5096221;28;19985;-63
2023/08/01 08:58:33;;;;;;;;;;;42.50;33.00;;;;;;5095937;28;20001;-64
2023/08/01 09:01:00;;;;;;;;;;;42.40;30.70;;;;;;5096545;28;19985;-63
2023/08/01 09:03:26;;;;;;;;;;;42.50;34.50;;;;;;5096208;28;19981;-63
2023/08/01 09:05:59;;;;;;;;;;;42.50;31.80;;;;;;5096104;28;20443;-65
2023/08/01 09:08:26;;;;;;;;;;;42.40;31.90;;;;;;5094905;28;20004;-64
2023/08/01 09:10:51;;;;;;;;;;;41.90;32.10;;;;;;5096070;28;20139;-65
2023/08/01 09:13:17;;;;;;;;;;;41.80;32.40;;;;;;5095955;28;19985;-65
2023/08/01 09:15:46;;;;;;;;;;;41.90;32.60;;;;;;5096028;28;20356;-63
2023/08/01 09:18:12;;;;;;;;;;;41.90;33.20;;;;;;5095881;28;20126;-65
2023/08/01 09:20:44;;;;;;;;;;;41.20;31.60;;;;;;5095810;28;20050;-64
2023/08/01 09:23:10;;;;;;;;;;;41.20;33.30;;;;;;5095942;28;20432;-65
2023/08/01 09:25:36;;;;;;;;;;;41.30;31.60;;;;;;5095750;28;20077;-63
2023/08/01 09:28:02;;;;;;;;;;;41.10;31.90;;;;;;5095403;28;20351;-63
2023/08/01 09:30:31;;;;;;;;;;;41.10;32.20;;;;;;5095601;28;20007;-64
2023/08/01 09:32:57;;;;;;;;;;;41.30;33.50;;;;;;5095568;28;19985;-64
2023/08/01 09:35:23;;;;;;;;;;;41.40;32.00;;;;;;5095772;28;20088;-65
2023/08/01 09:37:49;;;;;;;;;;;40.90;30.50;;;;;;5096033;28;19992;-63
2023/08/01 09:40:15;;;;;;;;;;;40.50;32.50;;;;;;5095506;28;20351;-65
2023/08/01 09:42:41;;;;;;;;;;;40.80;35.70;;;;;;5095026;28;20355;-63
2023/08/01 09:45:16;;;;;;;;;;;40.90;31.00;;;;;;5095548;28;20039;-65
2023/08/01 09:47:42;;;;;;;;;;;40.90;33.40;;;;;;5095593;28;20008;-65
2023/08/01 09:50:09;;;;;;;;;;;41.20;32.40;;;;;;5095420;28;20028;-65
2023/08/01 09:52:34;;;;;;;;;;;41.30;33.00;;;;;;5095184;28;20561;-65
2023/08/01 09:55:00;;;;;;;;;;;41.50;36.30;;;;;;5095154;28;20026;-63
2023/08/01 09:57:28;;;;;;;;;;;41.70;33.80;;;;;;5094758;28;19997;-63
2023/08/01 09:59:55;;;;;;;;;;;41.70;30.80;;;;;;5095095;28;19988;-64
2023/08/01 10:02:23;;;;;;;;;;;41.30;31.10;;;;;;5095009;28;20079;-63
2023/08/01 10:04:49;;;;;;;;;;;41.30;34.20;;;;;;5094958;28;19981;-65
2023/08/01 10:07:17;;;;;;;;;;;41.50;35.50;;;;;;5095067;28;20034;-65
2023/08/01 10:09:43;;;;;;;;;;;41.70;33.50;;;;;;5094827;28;20019;-65
2023/08/01 10:12:09;;;;;;;;;;;41.40;31.50;;;;;;5094623;28;19981;-65
2023/08/01 10:14:35;;;;;;;;;;;41.20;30.20;;;;;;5095100;28;19993;-65
2023/08/01 10:17:02;;;;;;;;;;;40.90;30.60;;;;;;5094797;28;20076;-65
2023/08/01 10:19:27;;;;;;;;;;;40.90;32.00;;;;;;5094232;28;20428;-66
2023/08/01 10:21:53;;;;;;;;;;;41.10;30.40;;;;;;5094799;28;19988;-63
2023/08/01 10:24:19;;;;;;;;;;;40.90;30.30;;;;;;5094923;28;19989;-65
2023/08/01 10:26:46;;;;;;;;;;;40.70;30.20;;;;;;5094704;28;20054;-65
2023/08/01 10:29:11;;;;;;;;;;;40.70;31.70;;;;;;5094702;28;20009;-64
2023/08/01 10:31:37;;;;;;;;;;;40.70;31.70;;;;;;5094747;28;20008;-64
2023/08/01 10:34:06;;;;;;;;;;;40.50;31.50;;;;;;5094620;28;20032;-65
2023/08/01 10:36:32;;;;;;;;;;;40.60;32.70;;;;;;5094305;28;20088;-63
2023/08/01 10:38:59;;;;;;;;;;;40.70;33.30;;;;;;5094690;28;19992;-64
2023/08/01 10:41:24;;;;;;;;;;;40.40;29.70;;;;;;5094288;28;19985;-64
2023/08/01 10:43:50;;;;;;;;;;;40.00;30.60;;;;;;5094228;28;19981;-65
2023/08/01 10:46:16;;;;;;;;;;;39.90;30.20;;;;;;5094134;28;20119;-63
2023/08/01 10:48:48;;;;;;;;;;;39.70;34.10;;;;;;5094323;28;20016;-63
2023/08/01 10:51:13;;;;;;;;;;;39.40;32.20;;;;;;5094097;28;20027;-64
2023/08/01 10:53:39;;;;;;;;;;;39.40;33.80;;;;;;5094064;28;19981;-63
2023/08/01 10:56:05;;;;;;;;;;;39.50;32.10;;;;;;5094171;28;19986;-65
2023/08/01 10:58:30;;;;;;;;;;;39.90;32.70;;;;;;5093914;28;20067;-62
2023/08/01 11:00:59;;;;;;;;;;;40.20;34.50;;;;;;5094155;28;19981;-65
2023/08/01 11:03:35;;;;;;;;;;;40.80;36.10;;;;;;5094302;28;20054;-63
2023/08/01 11:06:01;;;;;;;;;;;41.10;31.40;;;;;;5094009;28;19989;-64
2023/08/01 11:08:34;;;;;;;;;;;41.30;29.90;;;;;;5093753;28;20099;-64
2023/08/01 11:10:59;;;;;;;;;;;41.10;31.30;;;;;;5093835;28;20320;-64
2023/08/01 11:13:25;;;;;;;;;;;41.00;29.40;;;;;;5093847;28;19991;-63
2023/08/01 11:15:53;;;;;;;;;;;41.00;29.90;;;;;;5093969;28;19982;-63
2023/08/01 11:18:19;;;;;;;;;;;41.20;33.10;;;;;;5093813;28;19981;-62
2023/08/01 11:20:44;;;;;;;;;;;41.10;30.00;;;;;;5094057;28;20107;-63
2023/08/01 11:23:11;;;;;;;;;;;40.90;30.00;;;;;;5093843;28;20034;-63
2023/08/01 11:25:36;;;;;;;;;;;40.90;31.70;;;;;;5093823;28;20379;-63
2023/08/01 11:28:05;;;;;;;;;;;40.70;30.90;;;;;;5093801;28;19989;-64
2023/08/01 11:30:32;;;;;;;;;;;40.80;33.70;;;;;;5094359;28;20031;-65
2023/08/01 11:32:58;;;;;;;;;;;40.80;30.00;;;;;;5097919;28;19981;-65
2023/08/01 11:35:23;;;;;;;;;;;40.70;29.70;;;;;;5098043;28;20050;-64
2023/08/01 11:37:50;;;;;;;;;;;40.70;33.60;;;;;;5098029;28;20356;-64
2023/08/01 11:40:16;;;;;;;;;;;41.10;35.20;;;;;;5098082;28;20068;-62
2023/08/01 11:42:41;;;;;;;;;;;41.30;34.40;;;;;;5097679;28;20423;-63
2023/08/01 11:45:11;;;;;;;;;;;41.40;33.80;;;;;;5097599;28;20021;-64
2023/08/01 11:47:36;;;;;;;;;;;41.40;30.70;;;;;;5097612;28;20004;-63
2023/08/01 11:50:02;;;;;;;;;;;41.50;31.80;;;;;;5097758;28;20459;-65
2023/08/01 11:52:28;;;;;;;;;;;41.70;32.50;;;;;;5097433;28;20019;-63
2023/08/01 11:54:57;;;;;;;;;;;41.70;30.00;;;;;;5097789;28;19988;-63
2023/08/01 11:57:22;;;;;;;;;;;41.50;31.50;;;;;;5097274;28;19997;-63
2023/08/01 11:59:55;;;;;;;;;;;41.30;31.00;;;;;;5097473;28;19987;-65
2023/08/01 12:02:22;;;;;;;;;;;41.10;32.00;;;;;;5097468;28;20016;-64
2023/08/01 12:04:47;;;;;;;;;;;40.90;31.70;;;;;;5097294;28;20343;-63
2023/08/01 12:07:14;;;;;;;;;;;40.60;33.10;;;;;;5097235;28;19988;-63
2023/08/01 12:09:40;;;;;;;;;;;40.50;33.80;;;;;;5097457;28;20087;-63
2023/08/01 12:12:06;;;;;;;;;;;40.30;34.10;;;;;;5097095;28;19989;-64
2023/08/01 12:14:32;;;;;;;;;;;40.10;32.30;;;;;;5097196;28;20025;-63
2023/08/01 12:16:57;;;;;;;;;;;40.20;32.90;;;;;;5097023;28;20028;-63
2023/08/01 12:19:23;;;;;;;;;;;40.60;33.10;;;;;;5096954;28;19988;-63
2023/08/01 12:21:49;;;;;;;;;;;40.50;30.00;;;;;;5096934;28;20084;-62
2023/08/01 12:24:14;;;;;;;;;;;40.40;32.10;;;;;;5097219;28;19985;-63
2023/08/01 12:26:40;;;;;;;;;;;40.40;32.30;;;;;;5096991;28;20454;-64
2023/08/01 12:29:05;;;;;;;;;;;40.30;34.20;;;;;;5096790;28;20371;-63
2023/08/01 12:31:31;;;;;;;;;;;40.20;34.10;;;;;;5096744;28;19992;-63
2023/08/01 12:33:56;;;;;;;;;;;40.50;33.40;;;;;;5097065;28;19985;-64
2023/08/01 12:36:22;;;;;;;;;;;40.60;31.60;;;;;;5096498;28;19989;-63
2023/08/01 12:38:48;;;;;;;;;;;40.40;31.00;;;;;;5096581;28;19992;-64
2023/08/01 12:41:13;;;;;;;;;;;40.10;31.10;;;;;;5096499;28;19984;-62
2023/08/01 12:43:39;;;;;;;;;;;40.30;32.90;;;;;;5096371;28;19985;-64
2023/08/01 12:46:04;;;;;;;;;;;40.30;30.90;;;;;;5096403;28;20093;-63
2023/08/01 12:48:30;;;;;;;;;;;40.10;31.80;;;;;;5096667;28;20062;-62
2023/08/01 12:50:56;;;;;;;;;;;40.10;32.20;;;;;;5096233;28;19982;-64
2023/08/01 12:53:23;;;;;;;;;;;40.00;34.80;;;;;;5095945;28;20317;-63
2023/08/01 12:55:49;;;;;;;;;;;39.70;34.70;;;;;;5096479;28;19981;-63
2023/08/01 12:58:15;;;;;;;;;;;39.50;32.70;;;;;;5096490;28;20431;-64
2023/08/01 13:00:41;;;;;;;;;;;39.30;33.20;;;;;;5096144;28;20043;-65
2023/08/01 13:03:07;;;;;;;;;;;39.00;34.00;;;;;;5096524;28;20083;-65
2023/08/01 13:05:36;;;;;;;;;;;38.80;35.90;;;;;;5095971;28;19982;-63
2023/08/01 13:08:02;;;;;;;;;;;38.30;38.30;;;;;;5095881;28;19989;-64
2023/08/01 13:10:34;;;;;;;;;;;37.90;39.70;;;;;;5096060;28;19989;-64
2023/08/01 13:13:00;;;;;;;;;;;37.70;40.00;;;;;;5096025;28;19985;-65
2023/08/01 13:15:26;;;;;;;;;;;37.50;40.20;;;;;;5095933;28;19988;-63
2023/08/01 13:17:52;;;;;;;;;;;37.20;39.60;;;;;;5095932;28;20027;-62
2023/08/01 13:20:17;;;;;;;;;;;36.80;41.00;;;;;;5095763;28;19981;-64
2023/08/01 13:22:44;;;;;;;;;;;36.60;42.80;;;;;;5096046;28;20028;-63
2023/08/01 13:25:10;;;;;;;;;;;36.40;43.50;;;;;;5095936;28;19981;-63
2023/08/01 13:27:35;;;;;;;;;;;36.40;43.50;;;;;;5095783;28;19982;-63
2023/08/01 13:30:01;;;;;;;;;;;36.30;43.60;;;;;;5095577;28;20100;-63
2023/08/01 13:32:27;;;;;;;;;;;36.30;44.20;;;;;;5095895;28;19981;-62
2023/08/01 13:34:52;;;;;;;;;;;36.40;43.60;;;;;;5095476;28;19981;-63
2023/08/01 13:37:18;;;;;;;;;;;36.70;43.60;;;;;;5095473;28;20069;-65
2023/08/01 13:39:45;;;;;;;;;;;37.30;41.20;;;;;;5095749;28;20007;-64
2023/08/01 13:42:14;;;;;;;;;;;37.60;37.30;;;;;;5095442;28;19989;-64
2023/08/01 13:44:40;;;;;;;;;;;37.90;35.40;;;;;;5095220;28;19981;-64
2023/08/01 13:47:05;;;;;;;;;;;38.10;38.00;;;;;;5095406;28;19989;-63
2023/08/01 13:49:31;;;;;;;;;;;38.20;35.90;;;;;;5095199;28;20005;-63
2023/08/01 13:51:56;;;;;;;;;;;38.00;34.50;;;;;;5095302;28;19981;-64
2023/08/01 13:54:22;;;;;;;;;;;38.00;35.00;;;;;;5094616;28;19985;-65
2023/08/01 13:56:47;;;;;;;;;;;38.40;39.00;;;;;;5095178;28;20038;-63
2023/08/01 13:59:13;;;;;;;;;;;38.60;34.90;;;;;;5095071;28;20042;-64
2023/08/01 14:01:39;;;;;;;;;;;39.00;36.40;;;;;;5095026;28;20351;-63
2023/08/01 14:04:04;;;;;;;;;;;39.20;33.50;;;;;;5095114;28;19985;-64
2023/08/01 14:06:30;;;;;;;;;;;39.00;32.90;;;;;;5094995;28;20343;-62
2023/08/01 14:08:55;;;;;;;;;;;38.90;32.70;;;;;;5094821;28;20485;-63